Girard, Illinois
Current Conditions -  °F | °C
As of 1:35 PM on Monday 22 Dec 2014 (Local Time) from K3LF Reporting Station
Light Rain Light Rain  
Wind Chill: 37°   Ceiling: 400
Heat Index: 43°   Visibility: 4mi
Dew Point: 42°   Wind: 10mph
Humidity: 94%   Direction: 140°SE
Pressure: 29.61"   Gusts: 17mph
Location:  39.45°N, 89.78°W
Report Text: K3LF 221935Z AUTO 14009G15KT 4SM -RA OVC004 06/05 A2961 RMK AO2 P0001 T00620053
Loading
Personal Weather Stations






























Interactive Weather Map New forecast layout! Learn more

10-Day Weather Forecast

Advertisements
Track Severe Weather on mobile